Time;durP1;ratioP1;P1;durP2;ratioP2;P2;SDS_P1;SDS_P2;PMS_P1;PMS_P2;Temp;Humidity;BMP_temperature;BMP_pressure;BME280_temperature;BME280_humidity;BME280_pressure;Samples;Min_cycle;Max_cycle;Signal;HPM_P1;HPM_P2
2023/01/10 00:00:31;;;;;;;19.48;18.48;;;;;;;;;;5104411;28;20255;-82
2023/01/10 00:02:58;;;;;;;18.25;17.23;;;;;;;;;;5103057;28;20252;-83
2023/01/10 00:05:25;;;;;;;17.92;16.83;;;;;;;;;;5105494;28;20234;-82
2023/01/10 00:07:52;;;;;;;19.88;17.27;;;;;;;;;;5106879;28;20225;-85
2023/01/10 00:10:19;;;;;;;17.48;16.50;;;;;;;;;;5107074;28;20201;-83
2023/01/10 00:15:34;;;;;;;18.55;17.65;;;;;;;;;;5103709;28;20252;-82
2023/01/10 00:18:01;;;;;;;18.15;17.10;;;;;;;;;;5104094;28;20742;-82
2023/01/10 00:20:28;;;;;;;18.13;17.33;;;;;;;;;;5105227;28;20572;-82
2023/01/10 00:22:55;;;;;;;19.52;18.13;;;;;;;;;;5103537;28;20221;-83
2023/01/10 00:25:21;;;;;;;17.90;17.00;;;;;;;;;;5103743;28;20205;-82
2023/01/10 00:27:56;;;;;;;18.35;17.42;;;;;;;;;;5103991;28;20257;-82
2023/01/10 00:30:23;;;;;;;18.10;17.30;;;;;;;;;;5104110;28;20207;-82
2023/01/10 00:32:52;;;;;;;19.10;18.08;;;;;;;;;;5103788;28;20213;-82
2023/01/10 00:35:19;;;;;;;17.90;17.10;;;;;;;;;;5104119;28;20247;-83
2023/01/10 00:37:46;;;;;;;19.35;18.08;;;;;;;;;;5104054;28;20647;-82
2023/01/10 00:40:13;;;;;;;18.73;17.75;;;;;;;;;;5103962;28;20258;-81
2023/01/10 00:45:39;;;;;;;19.25;18.15;;;;;;;;;;5040565;28;20195;-82
2023/01/10 00:48:08;;;;;;;19.10;18.00;;;;;;;;;;5039998;28;20231;-82
2023/01/10 00:50:35;;;;;;;19.70;18.33;;;;;;;;;;5065415;28;20509;-82
2023/01/10 00:53:02;;;;;;;19.30;18.20;;;;;;;;;;5099982;28;20236;-83
2023/01/10 00:55:29;;;;;;;19.55;18.30;;;;;;;;;;5099167;28;20821;-82
2023/01/10 00:57:56;;;;;;;20.52;18.92;;;;;;;;;;5100318;28;20731;-82
2023/01/10 01:00:23;;;;;;;20.10;18.45;;;;;;;;;;5100423;28;20274;-87
2023/01/10 01:02:51;;;;;;;20.52;19.33;;;;;;;;;;5099933;28;20204;-82
2023/01/10 01:05:19;;;;;;;19.58;18.48;;;;;;;;;;5099304;28;20237;-82
2023/01/10 01:07:48;;;;;;;19.87;18.63;;;;;;;;;;5099498;28;20302;-82
2023/01/10 01:10:27;;;;;;;20.35;18.98;;;;;;;;;;5099193;28;20446;-81
2023/01/10 01:12:55;;;;;;;20.02;18.83;;;;;;;;;;5099419;28;20186;-83
2023/01/10 01:15:22;;;;;;;20.42;19.02;;;;;;;;;;5099486;28;20217;-82
2023/01/10 01:17:49;;;;;;;20.85;19.42;;;;;;;;;;5099114;28;20304;-82
2023/01/10 01:20:16;;;;;;;21.00;19.67;;;;;;;;;;5098589;28;20286;-82
2023/01/10 01:22:44;;;;;;;19.77;18.55;;;;;;;;;;5099176;28;20485;-82
2023/01/10 01:25:11;;;;;;;21.10;19.60;;;;;;;;;;5099232;28;20247;-82
2023/01/10 01:27:38;;;;;;;20.00;18.80;;;;;;;;;;5099026;28;20879;-83
2023/01/10 01:30:06;;;;;;;20.50;19.13;;;;;;;;;;5099155;28;20447;-83
2023/01/10 01:32:33;;;;;;;20.95;19.10;;;;;;;;;;5098329;28;20562;-82
2023/01/10 01:35:00;;;;;;;21.38;19.88;;;;;;;;;;5097712;28;20233;-82
2023/01/10 01:37:27;;;;;;;22.40;21.05;;;;;;;;;;5098623;28;20708;-82
2023/01/10 01:39:56;;;;;;;19.45;18.35;;;;;;;;;;5098310;28;20205;-81
2023/01/10 01:42:25;;;;;;;21.67;20.10;;;;;;;;;;5098054;28;20209;-82
2023/01/10 01:45:11;;;;;;;21.05;19.30;;;;;;;;;;5097697;28;20590;-82
2023/01/10 01:47:39;;;;;;;20.83;19.48;;;;;;;;;;5098836;28;20617;-81
2023/01/10 01:50:07;;;;;;;21.08;19.48;;;;;;;;;;5098626;28;20725;-82
2023/01/10 01:52:36;;;;;;;22.70;20.30;;;;;;;;;;5097905;28;20214;-81
2023/01/10 01:55:05;;;;;;;23.80;22.00;;;;;;;;;;5097588;28;20224;-82
2023/01/10 01:57:33;;;;;;;24.38;22.50;;;;;;;;;;5098281;28;20475;-82
2023/01/10 02:00:01;;;;;;;23.35;21.42;;;;;;;;;;5097773;28;20426;-82
2023/01/10 02:02:31;;;;;;;24.80;22.27;;;;;;;;;;5098361;28;20213;-82
2023/01/10 02:04:59;;;;;;;24.23;21.63;;;;;;;;;;5098113;28;20443;-81
2023/01/10 02:07:27;;;;;;;25.33;23.02;;;;;;;;;;5098307;28;20221;-82
2023/01/10 02:09:56;;;;;;;24.27;22.03;;;;;;;;;;5098293;28;20222;-82
2023/01/10 02:12:25;;;;;;;21.00;19.08;;;;;;;;;;5097347;28;20947;-82
2023/01/10 02:14:53;;;;;;;24.03;21.97;;;;;;;;;;5097410;28;20274;-82
2023/01/10 02:17:20;;;;;;;23.48;21.45;;;;;;;;;;5097641;28;20525;-82
2023/01/10 02:19:51;;;;;;;25.27;22.48;;;;;;;;;;5098119;28;20576;-82
2023/01/10 02:22:27;;;;;;;20.95;19.35;;;;;;;;;;5097410;28;20738;-82
2023/01/10 02:25:18;;;;;;;21.33;19.90;;;;;;;;;;5097650;28;20193;-81
2023/01/10 02:27:53;;;;;;;22.08;20.35;;;;;;;;;;5041371;28;20702;-82
2023/01/10 02:30:32;;;;;;;23.98;21.80;;;;;;;;;;5097838;28;20433;-82
2023/01/10 02:33:05;;;;;;;23.70;21.67;;;;;;;;;;5097065;28;20270;-83
2023/01/10 02:35:46;;;;;;;23.10;21.00;;;;;;;;;;5097565;28;20254;-82
2023/01/10 02:38:17;;;;;;;23.42;21.42;;;;;;;;;;5097880;28;20485;-81
2023/01/10 02:40:50;;;;;;;24.38;21.85;;;;;;;;;;5097622;28;20197;-82
2023/01/10 02:43:19;;;;;;;24.10;21.65;;;;;;;;;;5096778;28;20238;-83
2023/01/10 02:45:48;;;;;;;22.60;20.53;;;;;;;;;;5097658;28;20346;-82
2023/01/10 02:48:18;;;;;;;23.90;21.40;;;;;;;;;;5097441;28;20458;-81
2023/01/10 02:50:51;;;;;;;20.75;19.13;;;;;;;;;;5097344;28;20469;-82
2023/01/10 02:53:20;;;;;;;21.73;19.88;;;;;;;;;;5097262;28;20596;-82
2023/01/10 02:55:56;;;;;;;21.98;19.92;;;;;;;;;;5096665;28;20233;-82
2023/01/10 02:58:30;;;;;;;19.98;18.17;;;;;;;;;;5097306;28;20530;-82
2023/01/10 03:01:00;;;;;;;21.52;19.38;;;;;;;;;;5097627;28;20232;-82
2023/01/10 03:03:34;;;;;;;21.95;19.95;;;;;;;;;;5097209;28;20193;-81
2023/01/10 03:06:07;;;;;;;21.17;19.40;;;;;;;;;;5096986;28;20229;-82
2023/01/10 03:08:36;;;;;;;20.17;18.40;;;;;;;;;;5097272;28;20197;-82
2023/01/10 03:11:04;;;;;;;20.33;18.45;;;;;;;;;;5097027;28;20213;-82
2023/01/10 03:13:35;;;;;;;19.40;18.08;;;;;;;;;;5096023;28;20202;-82
2023/01/10 03:16:02;;;;;;;19.98;18.27;;;;;;;;;;5097465;28;20256;-82
2023/01/10 03:18:33;;;;;;;21.42;19.63;;;;;;;;;;5096883;28;20205;-82
2023/01/10 03:21:03;;;;;;;20.27;18.85;;;;;;;;;;5096901;28;20204;-82
2023/01/10 03:23:32;;;;;;;20.00;18.50;;;;;;;;;;5097240;28;20584;-82
2023/01/10 03:25:59;;;;;;;22.27;20.40;;;;;;;;;;5097553;28;20265;-82
2023/01/10 03:28:29;;;;;;;20.52;18.92;;;;;;;;;;5097005;28;20213;-82
2023/01/10 03:30:58;;;;;;;20.90;19.10;;;;;;;;;;5097414;28;20201;-82
2023/01/10 03:33:28;;;;;;;20.07;18.67;;;;;;;;;;5096374;28;20677;-81
2023/01/10 03:36:01;;;;;;;20.98;19.45;;;;;;;;;;5096772;28;20487;-82
2023/01/10 03:38:31;;;;;;;18.13;17.13;;;;;;;;;;5096692;28;20189;-82
2023/01/10 03:41:02;;;;;;;20.00;18.63;;;;;;;;;;5096655;28;20209;-82
2023/01/10 03:46:21;;;;;;;21.20;19.38;;;;;;;;;;5097274;28;20266;-82
2023/01/10 03:48:49;;;;;;;21.08;19.52;;;;;;;;;;5097063;28;20184;-82
2023/01/10 03:51:19;;;;;;;24.50;20.52;;;;;;;;;;5097479;28;20206;-82
2023/01/10 03:53:46;;;;;;;23.55;19.65;;;;;;;;;;5096944;28;20209;-83
2023/01/10 03:56:13;;;;;;;21.97;20.07;;;;;;;;;;5097097;28;20225;-82
2023/01/10 03:58:40;;;;;;;22.23;20.38;;;;;;;;;;5096801;28;20444;-82
2023/01/10 04:01:07;;;;;;;20.80;19.27;;;;;;;;;;5097041;28;20361;-82
2023/01/10 04:03:34;;;;;;;22.60;20.33;;;;;;;;;;5095707;28;20861;-83
2023/01/10 04:06:01;;;;;;;20.63;19.13;;;;;;;;;;5096134;28;20225;-82
2023/01/10 04:08:30;;;;;;;21.73;20.25;;;;;;;;;;5096607;28;20607;-82
2023/01/10 04:10:57;;;;;;;23.60;21.42;;;;;;;;;;5096784;28;20246;-82
2023/01/10 04:13:24;;;;;;;23.60;21.60;;;;;;;;;;5096135;28;20208;-82
2023/01/10 04:15:51;;;;;;;21.05;19.55;;;;;;;;;;5095670;28;20221;-82
2023/01/10 04:18:18;;;;;;;22.40;20.70;;;;;;;;;;5097303;28;20204;-82
2023/01/10 04:20:45;;;;;;;21.57;19.77;;;;;;;;;;5096414;28;20430;-82
2023/01/10 04:23:12;;;;;;;19.65;18.30;;;;;;;;;;5095179;28;20467;-81
2023/01/10 04:25:40;;;;;;;21.63;19.92;;;;;;;;;;5099935;28;20206;-82
2023/01/10 04:28:07;;;;;;;23.20;21.13;;;;;;;;;;5100342;28;20261;-82
2023/01/10 04:30:34;;;;;;;23.05;20.70;;;;;;;;;;5100458;28;20206;-82
2023/01/10 04:33:01;;;;;;;24.05;22.15;;;;;;;;;;5099765;28;20236;-83
2023/01/10 04:35:28;;;;;;;25.27;23.15;;;;;;;;;;5099944;28;20229;-83
2023/01/10 04:37:55;;;;;;;25.67;23.33;;;;;;;;;;5100025;28;20229;-82
2023/01/10 04:40:22;;;;;;;24.05;22.25;;;;;;;;;;5100210;28;20747;-82
2023/01/10 04:42:50;;;;;;;26.73;23.20;;;;;;;;;;5101596;28;20215;-82
2023/01/10 04:45:19;;;;;;;27.10;24.60;;;;;;;;;;5104517;28;20228;-83
2023/01/10 04:47:49;;;;;;;26.13;23.70;;;;;;;;;;5103331;28;20746;-82
2023/01/10 04:50:17;;;;;;;27.55;24.58;;;;;;;;;;5100608;28;20211;-82
2023/01/10 04:52:44;;;;;;;28.80;25.37;;;;;;;;;;5099887;28;20210;-82
2023/01/10 04:55:11;;;;;;;33.58;26.55;;;;;;;;;;5099550;28;20598;-82
2023/01/10 04:57:38;;;;;;;27.90;24.90;;;;;;;;;;5099440;28;20258;-82
2023/01/10 05:00:07;;;;;;;28.20;24.77;;;;;;;;;;5100151;28;20200;-82
2023/01/10 05:02:34;;;;;;;26.20;23.80;;;;;;;;;;5099847;28;20448;-82
2023/01/10 05:05:01;;;;;;;26.37;23.70;;;;;;;;;;5098148;28;20209;-82
2023/01/10 05:07:28;;;;;;;22.40;20.40;;;;;;;;;;5099271;28;20532;-82
2023/01/10 05:09:55;;;;;;;24.27;22.23;;;;;;;;;;5100266;28;20204;-82
2023/01/10 05:12:22;;;;;;;24.90;22.58;;;;;;;;;;5099757;28;20266;-82
2023/01/10 05:14:49;;;;;;;25.80;23.65;;;;;;;;;;5099351;28;20540;-82
2023/01/10 05:17:17;;;;;;;25.58;22.23;;;;;;;;;;5099375;28;20306;-82
2023/01/10 05:19:45;;;;;;;25.15;23.15;;;;;;;;;;5099272;28;20216;-82
2023/01/10 05:22:12;;;;;;;25.95;23.60;;;;;;;;;;5099070;28;20249;-82
2023/01/10 05:24:40;;;;;;;23.05;21.45;;;;;;;;;;5099273;28;20205;-82
2023/01/10 05:27:07;;;;;;;27.05;24.10;;;;;;;;;;5098782;28;20225;-82
2023/01/10 05:29:34;;;;;;;25.45;23.15;;;;;;;;;;5098791;28;20666;-82
2023/01/10 05:32:01;;;;;;;22.55;20.58;;;;;;;;;;5099326;28;20212;-82
2023/01/10 05:34:29;;;;;;;26.48;23.92;;;;;;;;;;5097763;28;20231;-81
2023/01/10 05:36:56;;;;;;;25.40;23.33;;;;;;;;;;5098774;28;20287;-82
2023/01/10 05:39:23;;;;;;;22.10;20.60;;;;;;;;;;5099288;28;20274;-82
2023/01/10 05:41:50;;;;;;;22.35;20.77;;;;;;;;;;5098517;28;20441;-82
2023/01/10 05:44:17;;;;;;;25.00;23.13;;;;;;;;;;5098672;28;20214;-81
2023/01/10 05:46:44;;;;;;;24.65;22.38;;;;;;;;;;5098422;28;20225;-82
2023/01/10 05:49:11;;;;;;;23.85;22.13;;;;;;;;;;5098631;28;20269;-82
2023/01/10 05:51:41;;;;;;;25.15;22.08;;;;;;;;;;5099326;28;20209;-81
2023/01/10 05:54:08;;;;;;;24.75;22.60;;;;;;;;;;5097877;28;20209;-82
2023/01/10 05:56:35;;;;;;;23.13;21.13;;;;;;;;;;5097976;28;20278;-82
2023/01/10 05:59:02;;;;;;;25.20;23.08;;;;;;;;;;5098271;28;20209;-81
2023/01/10 06:01:29;;;;;;;23.63;21.85;;;;;;;;;;5098261;28;20201;-82
2023/01/10 06:03:56;;;;;;;23.25;21.50;;;;;;;;;;5097660;28;20235;-81
2023/01/10 06:06:23;;;;;;;24.80;22.73;;;;;;;;;;5097583;28;20220;-81
2023/01/10 06:08:54;;;;;;;26.80;24.23;;;;;;;;;;5098016;28;20710;-81
2023/01/10 06:11:22;;;;;;;25.73;23.52;;;;;;;;;;5098451;28;20624;-81
2023/01/10 06:13:52;;;;;;;25.90;23.67;;;;;;;;;;5098337;28;20230;-82
2023/01/10 06:16:19;;;;;;;25.42;23.30;;;;;;;;;;5097481;28;20238;-81
2023/01/10 06:18:46;;;;;;;25.85;23.20;;;;;;;;;;5098123;28;20198;-81
2023/01/10 06:21:13;;;;;;;25.40;23.15;;;;;;;;;;5097800;28;20270;-81
2023/01/10 06:23:40;;;;;;;26.27;23.95;;;;;;;;;;5097713;28;20193;-82
2023/01/10 06:26:09;;;;;;;25.75;23.50;;;;;;;;;;5098028;28;20239;-81
2023/01/10 06:28:36;;;;;;;24.70;22.70;;;;;;;;;;5098253;28;20193;-81
2023/01/10 06:31:03;;;;;;;25.57;23.00;;;;;;;;;;5097713;28;20501;-81
2023/01/10 06:33:29;;;;;;;25.13;22.67;;;;;;;;;;5097220;28;20478;-81
2023/01/10 06:35:56;;;;;;;24.77;22.48;;;;;;;;;;5097192;28;20660;-81
2023/01/10 06:38:23;;;;;;;24.92;22.33;;;;;;;;;;5097654;28;20213;-81
2023/01/10 06:40:50;;;;;;;23.20;21.20;;;;;;;;;;5097925;28;20657;-81
2023/01/10 06:43:19;;;;;;;22.57;20.70;;;;;;;;;;5097050;28;20422;-81
2023/01/10 06:45:46;;;;;;;24.52;22.52;;;;;;;;;;5097218;28;20451;-80
2023/01/10 06:48:13;;;;;;;23.63;21.47;;;;;;;;;;5096197;28;20213;-81
2023/01/10 06:50:40;;;;;;;24.50;22.52;;;;;;;;;;5097956;28;20474;-81
2023/01/10 06:53:07;;;;;;;25.33;22.92;;;;;;;;;;5096676;28;20266;-80
2023/01/10 06:55:34;;;;;;;25.90;23.67;;;;;;;;;;5097238;28;20262;-81
2023/01/10 06:58:02;;;;;;;26.23;23.67;;;;;;;;;;5096261;28;20472;-82
2023/01/10 07:00:31;;;;;;;27.80;24.05;;;;;;;;;;5097248;28;20198;-81
2023/01/10 07:02:58;;;;;;;26.92;24.23;;;;;;;;;;5096909;28;20209;-82
2023/01/10 07:05:25;;;;;;;27.33;24.25;;;;;;;;;;5097219;28;20249;-81
2023/01/10 07:07:53;;;;;;;59.80;21.60;;;;;;;;;;5096858;28;20228;-81
2023/01/10 07:10:19;;;;;;;26.73;23.92;;;;;;;;;;5097061;28;20591;-81
2023/01/10 07:12:46;;;;;;;24.83;22.20;;;;;;;;;;5097051;28;20205;-81
2023/01/10 07:15:13;;;;;;;26.25;23.80;;;;;;;;;;5096909;28;20209;-81
2023/01/10 07:17:42;;;;;;;24.00;21.98;;;;;;;;;;5096883;28;20637;-81
2023/01/10 07:20:09;;;;;;;31.15;24.20;;;;;;;;;;5096551;28;20595;-81
2023/01/10 07:22:36;;;;;;;26.35;24.17;;;;;;;;;;5097001;28;20247;-82
2023/01/10 07:25:04;;;;;;;26.50;23.60;;;;;;;;;;5096539;28;20259;-81
2023/01/10 07:27:31;;;;;;;24.98;22.85;;;;;;;;;;5097129;28;20455;-81
2023/01/10 07:29:58;;;;;;;25.83;23.10;;;;;;;;;;5095888;28;20696;-82
2023/01/10 07:32:25;;;;;;;26.85;24.35;;;;;;;;;;5096906;28;20205;-81
2023/01/10 07:34:54;;;;;;;26.95;24.17;;;;;;;;;;5098331;28;20618;-78
2023/01/10 07:37:21;;;;;;;25.60;23.43;;;;;;;;;;5098620;28;20245;-79
2023/01/10 07:39:48;;;;;;;35.13;23.75;;;;;;;;;;5099010;28;20568;-79
2023/01/10 07:42:15;;;;;;;27.63;25.13;;;;;;;;;;5098949;28;20235;-78
2023/01/10 07:44:42;;;;;;;23.52;21.83;;;;;;;;;;5097807;28;20259;-78
2023/01/10 07:47:09;;;;;;;27.97;25.40;;;;;;;;;;5098382;28;20225;-78
2023/01/10 07:49:36;;;;;;;24.08;21.85;;;;;;;;;;5098554;28;20451;-79
2023/01/10 07:52:06;;;;;;;24.25;22.33;;;;;;;;;;5098345;28;20259;-79
2023/01/10 07:54:34;;;;;;;24.48;22.27;;;;;;;;;;5097702;28;20647;-78
2023/01/10 07:57:01;;;;;;;30.45;25.45;;;;;;;;;;5097341;28;20241;-78
2023/01/10 07:59:28;;;;;;;25.30;23.10;;;;;;;;;;5102028;28;20212;-78
2023/01/10 08:01:55;;;;;;;24.08;21.40;;;;;;;;;;5102582;28;20224;-78
2023/01/10 08:04:22;;;;;;;26.70;23.87;;;;;;;;;;5101916;28;20209;-79
2023/01/10 08:06:49;;;;;;;26.70;24.33;;;;;;;;;;5102821;28;20798;-79
2023/01/10 08:09:18;;;;;;;25.23;22.73;;;;;;;;;;5103097;28;20192;-79
2023/01/10 08:11:45;;;;;;;26.45;24.05;;;;;;;;;;5102959;28;20445;-78
2023/01/10 08:14:12;;;;;;;27.00;24.70;;;;;;;;;;5103047;28;20209;-79
2023/01/10 08:16:39;;;;;;;24.35;22.35;;;;;;;;;;5103326;28;20462;-78
2023/01/10 08:19:06;;;;;;;22.95;21.05;;;;;;;;;;5103280;28;20202;-78
2023/01/10 08:21:33;;;;;;;25.33;23.13;;;;;;;;;;5102215;28;20218;-79
2023/01/10 08:24:00;;;;;;;24.63;22.73;;;;;;;;;;5103032;28;20209;-79
2023/01/10 08:26:28;;;;;;;25.33;22.92;;;;;;;;;;5103840;28;20221;-79
2023/01/10 08:28:55;;;;;;;23.48;21.08;;;;;;;;;;5103203;28;20228;-79
2023/01/10 08:31:23;;;;;;;23.98;21.92;;;;;;;;;;5102435;28;20678;-79
2023/01/10 08:33:50;;;;;;;23.50;21.23;;;;;;;;;;5102716;28;20201;-82
2023/01/10 08:36:17;;;;;;;26.17;23.55;;;;;;;;;;5102159;28;20479;-78
2023/01/10 08:38:45;;;;;;;26.55;23.65;;;;;;;;;;5104510;28;20220;-81
2023/01/10 08:41:12;;;;;;;24.92;22.52;;;;;;;;;;5105467;28;20255;-79
2023/01/10 08:43:40;;;;;;;27.95;23.30;;;;;;;;;;5106354;28;20633;-79
2023/01/10 08:46:08;;;;;;;22.20;20.42;;;;;;;;;;5106564;28;20224;-79
2023/01/10 08:48:35;;;;;;;26.00;22.63;;;;;;;;;;5106238;28;20202;-79
2023/01/10 08:51:05;;;;;;;30.70;22.77;;;;;;;;;;5106729;28;21050;-79
2023/01/10 08:53:32;;;;;;;24.20;21.90;;;;;;;;;;5105048;28;20267;-79
2023/01/10 08:55:59;;;;;;;24.70;22.23;;;;;;;;;;5107097;28;20442;-79
2023/01/10 08:58:26;;;;;;;24.42;22.00;;;;;;;;;;5107486;28;20229;-79
2023/01/10 09:00:54;;;;;;;24.97;22.53;;;;;;;;;;5107088;28;20262;-79
2023/01/10 09:03:22;;;;;;;25.03;21.23;;;;;;;;;;5105915;28;20890;-80
2023/01/10 09:05:49;;;;;;;23.80;21.47;;;;;;;;;;5107979;28;20517;-79
2023/01/10 09:08:16;;;;;;;24.25;21.40;;;;;;;;;;5104634;28;20834;-92
2023/01/10 09:10:43;;;;;;;22.20;20.10;;;;;;;;;;5104573;28;20214;-79
2023/01/10 09:13:10;;;;;;;23.77;21.93;;;;;;;;;;5105320;28;20239;-80
2023/01/10 09:15:38;;;;;;;25.50;23.00;;;;;;;;;;5106812;28;20793;-79
2023/01/10 09:18:07;;;;;;;22.15;20.45;;;;;;;;;;5116764;28;20248;-80
2023/01/10 09:20:35;;;;;;;24.05;22.33;;;;;;;;;;5116361;28;20206;-80
2023/01/10 09:23:05;;;;;;;22.57;20.77;;;;;;;;;;5108340;28;20212;-80
2023/01/10 09:25:32;;;;;;;23.52;21.20;;;;;;;;;;5104589;28;20441;-80
2023/01/10 09:28:00;;;;;;;26.98;24.30;;;;;;;;;;5103529;28;20274;-80
2023/01/10 09:30:27;;;;;;;25.70;21.85;;;;;;;;;;5104167;28;20205;-80
2023/01/10 09:32:55;;;;;;;20.00;18.77;;;;;;;;;;5104073;28;20206;-80
2023/01/10 09:35:23;;;;;;;23.70;21.85;;;;;;;;;;5104190;28;20209;-80
2023/01/10 09:37:50;;;;;;;21.30;20.00;;;;;;;;;;5103568;28;20225;-80
2023/01/10 09:40:20;;;;;;;24.08;22.05;;;;;;;;;;5103640;28;20500;-80
2023/01/10 09:42:56;;;;;;;23.67;21.60;;;;;;;;;;5103724;28;20205;-79
2023/01/10 09:45:31;;;;;;;24.02;21.40;;;;;;;;;;5103460;28;20485;-79
2023/01/10 09:48:00;;;;;;;22.45;20.65;;;;;;;;;;5104570;28;20258;-81
2023/01/10 09:50:33;;;;;;;37.20;23.87;;;;;;;;;;5103313;28;20747;-79
2023/01/10 09:53:04;;;;;;;22.98;21.25;;;;;;;;;;5103100;28;20415;-80
2023/01/10 09:55:32;;;;;;;23.75;21.25;;;;;;;;;;5104013;28;20201;-80
2023/01/10 09:58:00;;;;;;;31.58;22.80;;;;;;;;;;5103678;28;20234;-79
2023/01/10 10:00:31;;;;;;;21.30;19.80;;;;;;;;;;5103507;28;20213;-80
2023/01/10 10:02:58;;;;;;;23.52;21.33;;;;;;;;;;5103204;28;20491;-80
2023/01/10 10:05:27;;;;;;;24.27;22.30;;;;;;;;;;5103068;28;20262;-80
2023/01/10 10:07:56;;;;;;;25.02;22.60;;;;;;;;;;5103075;28;20290;-79
2023/01/10 10:10:25;;;;;;;23.90;20.93;;;;;;;;;;5103668;28;20204;-79
2023/01/10 10:12:58;;;;;;;22.02;19.83;;;;;;;;;;5103240;28;20456;-80
2023/01/10 10:15:30;;;;;;;22.38;20.77;;;;;;;;;;5102951;28;20191;-80
2023/01/10 10:18:02;;;;;;;25.03;22.83;;;;;;;;;;5101684;28;20247;-79
2023/01/10 10:20:36;;;;;;;23.83;21.55;;;;;;;;;;5101059;28;20851;-80
2023/01/10 10:23:12;;;;;;;21.50;19.90;;;;;;;;;;5100369;28;20212;-80
2023/01/10 10:25:44;;;;;;;21.45;19.90;;;;;;;;;;5101815;28;20215;-80
2023/01/10 10:28:30;;;;;;;25.75;23.20;;;;;;;;;;5100763;28;20202;-80
2023/01/10 10:31:02;;;;;;;24.23;21.93;;;;;;;;;;5105806;28;20197;-81
2023/01/10 10:33:38;;;;;;;26.43;20.87;;;;;;;;;;5104505;28;20432;-80
2023/01/10 10:36:09;;;;;;;25.10;23.17;;;;;;;;;;5106203;28;21022;-80
2023/01/10 10:38:38;;;;;;;23.25;21.83;;;;;;;;;;5105265;28;20474;-80
2023/01/10 10:41:10;;;;;;;26.07;23.70;;;;;;;;;;5105492;28;20224;-80
2023/01/10 10:43:38;;;;;;;27.38;24.70;;;;;;;;;;5105743;28;20499;-80
2023/01/10 10:46:08;;;;;;;24.90;23.15;;;;;;;;;;5105953;28;20306;-80
2023/01/10 10:48:40;;;;;;;27.83;24.97;;;;;;;;;;5104244;28;20674;-80
2023/01/10 10:51:08;;;;;;;23.00;21.10;;;;;;;;;;5105658;28;20415;-79
2023/01/10 10:53:37;;;;;;;25.85;23.70;;;;;;;;;;5104170;28;20402;-80
2023/01/10 10:56:05;;;;;;;24.60;22.70;;;;;;;;;;5105053;28;20221;-79
2023/01/10 10:58:33;;;;;;;25.40;23.30;;;;;;;;;;5104597;28;20287;-79
2023/01/10 11:01:00;;;;;;;22.97;21.33;;;;;;;;;;5105840;28;20447;-79
2023/01/10 11:03:30;;;;;;;25.73;23.23;;;;;;;;;;5104610;28;20457;-80
2023/01/10 11:05:57;;;;;;;27.55;24.70;;;;;;;;;;5104078;28;20230;-79
2023/01/10 11:08:24;;;;;;;28.50;25.60;;;;;;;;;;5103215;28;20181;-79
2023/01/10 11:10:54;;;;;;;25.75;23.55;;;;;;;;;;5103165;28;20209;-80
2023/01/10 11:13:26;;;;;;;23.85;21.85;;;;;;;;;;5102170;28;20197;-80
2023/01/10 11:15:54;;;;;;;30.90;24.33;;;;;;;;;;5102066;28;20646;-79
2023/01/10 11:18:22;;;;;;;27.15;21.45;;;;;;;;;;5101785;28;20458;-79
2023/01/10 11:20:51;;;;;;;24.67;22.77;;;;;;;;;;5105001;28;20201;-79
2023/01/10 11:23:26;;;;;;;28.27;22.33;;;;;;;;;;5104952;28;20235;-79
2023/01/10 11:25:54;;;;;;;29.98;24.15;;;;;;;;;;5105354;28;20230;-79
2023/01/10 11:28:23;;;;;;;24.95;22.65;;;;;;;;;;5104485;28;20206;-80
2023/01/10 11:30:51;;;;;;;26.00;23.30;;;;;;;;;;5105621;28;20846;-80
2023/01/10 11:33:20;;;;;;;29.80;23.20;;;;;;;;;;5104885;28;20277;-79
2023/01/10 11:35:57;;;;;;;23.93;20.87;;;;;;;;;;5106352;28;20447;-79
2023/01/10 11:38:28;;;;;;;28.17;23.00;;;;;;;;;;5104697;28;20896;-79
2023/01/10 11:40:58;;;;;;;25.92;23.35;;;;;;;;;;5104066;28;20807;-82
2023/01/10 11:43:27;;;;;;;29.50;24.35;;;;;;;;;;5104303;28;20201;-80
2023/01/10 11:45:55;;;;;;;28.80;21.67;;;;;;;;;;5104834;28;20210;-79
2023/01/10 11:48:23;;;;;;;23.40;21.50;;;;;;;;;;5104380;28;20452;-79
2023/01/10 11:50:51;;;;;;;23.20;21.10;;;;;;;;;;5104214;28;20209;-79
2023/01/10 11:53:33;;;;;;;25.57;22.90;;;;;;;;;;5103907;28;20208;-79
2023/01/10 11:56:02;;;;;;;22.90;21.20;;;;;;;;;;5100879;28;20445;-79
2023/01/10 11:58:31;;;;;;;21.77;20.05;;;;;;;;;;5104132;28;20458;-78
2023/01/10 12:00:58;;;;;;;25.42;22.15;;;;;;;;;;5104835;28;20208;-79
2023/01/10 12:03:27;;;;;;;20.70;19.40;;;;;;;;;;5103645;28;20213;-79
2023/01/10 12:05:55;;;;;;;22.80;20.50;;;;;;;;;;5104526;28;20471;-79
2023/01/10 12:08:27;;;;;;;23.45;21.52;;;;;;;;;;5104823;28;20452;-79
2023/01/10 12:11:00;;;;;;;24.93;22.53;;;;;;;;;;5105025;28;20204;-78
2023/01/10 12:13:29;;;;;;;23.80;21.80;;;;;;;;;;5104309;28;20492;-79
2023/01/10 12:16:11;;;;;;;23.80;21.40;;;;;;;;;;5104085;28;20431;-79
2023/01/10 12:18:38;;;;;;;27.27;21.53;;;;;;;;;;5103583;28;21010;-79
2023/01/10 12:21:05;;;;;;;21.60;19.48;;;;;;;;;;5103686;28;20418;-79
2023/01/10 12:23:38;;;;;;;21.20;19.43;;;;;;;;;;5102699;28;20230;-79
2023/01/10 12:26:05;;;;;;;22.33;20.30;;;;;;;;;;5104607;28;20453;-79
2023/01/10 12:28:34;;;;;;;21.88;20.00;;;;;;;;;;5103583;28;20541;-79
2023/01/10 12:31:04;;;;;;;20.30;19.03;;;;;;;;;;5102938;28;20263;-80
2023/01/10 12:33:34;;;;;;;21.53;20.03;;;;;;;;;;5102395;28;20485;-79
2023/01/10 12:36:05;;;;;;;21.42;19.95;;;;;;;;;;5101903;28;20442;-79
2023/01/10 12:44:11;;;;;;;27.27;21.85;;;;;;;;;;5102428;28;20179;-79
2023/01/10 12:46:41;;;;;;;24.00;20.75;;;;;;;;;;5106814;28;20225;-80
2023/01/10 12:49:13;;;;;;;22.90;20.88;;;;;;;;;;5107806;28;20599;-79
2023/01/10 12:51:40;;;;;;;24.17;21.60;;;;;;;;;;5107638;28;20194;-80
2023/01/10 12:54:13;;;;;;;27.33;22.53;;;;;;;;;;5106704;28;20430;-79
2023/01/10 12:56:40;;;;;;;23.90;21.50;;;;;;;;;;5106787;28;20491;-79
2023/01/10 12:59:15;;;;;;;22.10;20.35;;;;;;;;;;5106618;28;20467;-79
2023/01/10 13:01:43;;;;;;;22.40;20.73;;;;;;;;;;5106547;28;20217;-80
2023/01/10 13:04:11;;;;;;;23.83;21.80;;;;;;;;;;5107090;28;20436;-79
2023/01/10 13:06:40;;;;;;;22.50;20.57;;;;;;;;;;5106709;28;20476;-79
2023/01/10 13:09:09;;;;;;;24.38;22.17;;;;;;;;;;5107540;28;20440;-79
2023/01/10 13:11:40;;;;;;;24.43;22.03;;;;;;;;;;5107038;28;20189;-79
2023/01/10 13:14:12;;;;;;;22.17;20.07;;;;;;;;;;5107020;28;20414;-79
2023/01/10 13:16:44;;;;;;;21.97;20.37;;;;;;;;;;5107043;28;20467;-80
2023/01/10 13:19:23;;;;;;;25.67;23.17;;;;;;;;;;5106392;28;20472;-80
2023/01/10 13:21:52;;;;;;;22.70;20.60;;;;;;;;;;5107031;28;20216;-80
2023/01/10 13:24:21;;;;;;;24.45;22.35;;;;;;;;;;5105900;28;20208;-79
2023/01/10 13:26:52;;;;;;;21.70;20.10;;;;;;;;;;5106956;28;20255;-79
2023/01/10 13:29:21;;;;;;;22.25;20.48;;;;;;;;;;5106810;28;20194;-79
2023/01/10 13:31:55;;;;;;;21.33;19.83;;;;;;;;;;5104971;28;20755;-79
2023/01/10 13:34:24;;;;;;;24.13;21.73;;;;;;;;;;5106263;28;20455;-79
2023/01/10 13:36:53;;;;;;;22.93;21.00;;;;;;;;;;5106350;28;20446;-80
2023/01/10 13:39:22;;;;;;;24.10;21.80;;;;;;;;;;5107042;28;20451;-79
2023/01/10 13:45:12;;;;;;;20.70;19.50;;;;;;;;;;5106037;28;20420;-79
2023/01/10 13:47:57;;;;;;;22.93;20.77;;;;;;;;;;5105963;28;20472;-80
2023/01/10 13:50:45;;;;;;;23.27;20.93;;;;;;;;;;5106836;28;20462;-79
2023/01/10 13:53:31;;;;;;;21.97;20.57;;;;;;;;;;5107615;28;20536;-80
2023/01/10 13:55:59;;;;;;;24.10;22.00;;;;;;;;;;5109552;28;20473;-79
2023/01/10 14:04:19;;;;;;;22.90;21.20;;;;;;;;;;5106278;28;20202;-80
2023/01/10 14:06:52;;;;;;;23.27;21.10;;;;;;;;;;5106782;28;20468;-80
2023/01/10 14:09:32;;;;;;;23.20;21.00;;;;;;;;;;5105455;28;20469;-79
2023/01/10 14:12:02;;;;;;;24.15;21.58;;;;;;;;;;5106024;28;20228;-79
2023/01/10 14:14:30;;;;;;;25.02;22.73;;;;;;;;;;5105138;28;20218;-79
2023/01/10 14:16:59;;;;;;;21.70;19.93;;;;;;;;;;5105929;28;20230;-79
2023/01/10 14:19:27;;;;;;;22.23;20.57;;;;;;;;;;5105105;28;20459;-80
2023/01/10 14:21:55;;;;;;;22.73;20.70;;;;;;;;;;5105546;28;20539;-79
2023/01/10 14:24:25;;;;;;;23.20;21.30;;;;;;;;;;5105044;28;20460;-79
2023/01/10 14:26:53;;;;;;;23.23;21.20;;;;;;;;;;5105755;28;20464;-79
2023/01/10 14:29:21;;;;;;;21.42;19.67;;;;;;;;;;5104774;28;20469;-80
2023/01/10 14:31:51;;;;;;;22.23;20.38;;;;;;;;;;5106232;28;20205;-79
2023/01/10 14:34:21;;;;;;;22.87;20.77;;;;;;;;;;5105470;28;20285;-80
2023/01/10 14:36:50;;;;;;;21.77;19.88;;;;;;;;;;5104960;28;20431;-79
2023/01/10 14:39:17;;;;;;;22.35;20.52;;;;;;;;;;5105407;28;20229;-79
2023/01/10 14:41:45;;;;;;;22.70;20.70;;;;;;;;;;5105217;28;20275;-79
2023/01/10 14:44:16;;;;;;;23.87;21.47;;;;;;;;;;5104950;28;20971;-80
2023/01/10 14:46:48;;;;;;;25.00;22.27;;;;;;;;;;5105682;28;20509;-79
2023/01/10 14:49:23;;;;;;;24.27;21.73;;;;;;;;;;5104485;28;20428;-79